sensor_id;sensor_type;location;lat;lon;timestamp;pressure;altitude;pressure_sealevel;temperature;humidity
55271;BME280;41132;47.162;9.470;2023-02-28T00:01:27;96746.41;;;0.23;93.81
55271;BME280;41132;47.162;9.470;2023-02-28T00:03:52;96722.78;;;-0.01;94.27
55271;BME280;41132;47.162;9.470;2023-02-28T00:06:18;96751.06;;;0.16;92.34
55271;BME280;41132;47.162;9.470;2023-02-28T00:08:43;96732.06;;;0.17;93.95
55271;BME280;41132;47.162;9.470;2023-02-28T00:11:12;96744.56;;;0.25;94.35
55271;BME280;41132;47.162;9.470;2023-02-28T00:13:40;96733.56;;;0.22;93.42
55271;BME280;41132;47.162;9.470;2023-02-28T00:16:12;96742.88;;;0.24;95.41
55271;BME280;41132;47.162;9.470;2023-02-28T00:18:38;96740.56;;;0.19;94.38
55271;BME280;41132;47.162;9.470;2023-02-28T00:21:04;96732.75;;;0.05;92.81
55271;BME280;41132;47.162;9.470;2023-02-28T00:23:30;96742.00;;;0.09;93.82
55271;BME280;41132;47.162;9.470;2023-02-28T00:25:56;96744.47;;;0.11;94.95
55271;BME280;41132;47.162;9.470;2023-02-28T00:28:21;96738.25;;;-0.01;94.90
55271;BME280;41132;47.162;9.470;2023-02-28T00:30:47;96741.41;;;0.04;93.63
55271;BME280;41132;47.162;9.470;2023-02-28T00:33:12;96726.34;;;-0.04;95.21
55271;BME280;41132;47.162;9.470;2023-02-28T00:35:38;96735.00;;;-0.05;94.07
55271;BME280;41132;47.162;9.470;2023-02-28T00:38:04;96739.59;;;-0.10;94.79
55271;BME280;41132;47.162;9.470;2023-02-28T00:40:29;96745.50;;;-0.08;94.77
55271;BME280;41132;47.162;9.470;2023-02-28T00:42:55;96735.75;;;-0.18;93.86
55271;BME280;41132;47.162;9.470;2023-02-28T00:45:20;96729.25;;;-0.10;94.95
55271;BME280;41132;47.162;9.470;2023-02-28T00:47:46;96740.09;;;-0.03;95.12
55271;BME280;41132;47.162;9.470;2023-02-28T00:50:18;96716.78;;;-0.17;93.93
55271;BME280;41132;47.162;9.470;2023-02-28T00:52:43;96747.25;;;-0.08;96.05
55271;BME280;41132;47.162;9.470;2023-02-28T00:55:09;96731.28;;;-0.31;95.39
55271;BME280;41132;47.162;9.470;2023-02-28T01:10:30;96741.09;;;-0.22;95.05
55271;BME280;41132;47.162;9.470;2023-02-28T01:23:17;96734.19;;;-0.37;96.59
55271;BME280;41132;47.162;9.470;2023-02-28T01:25:43;96736.50;;;-0.16;96.08
55271;BME280;41132;47.162;9.470;2023-02-28T01:46:13;96743.09;;;-0.27;94.07
55271;BME280;41132;47.162;9.470;2023-02-28T01:49:00;96736.59;;;-0.34;96.32
55271;BME280;41132;47.162;9.470;2023-02-28T01:51:35;96738.31;;;-0.50;96.23
55271;BME280;41132;47.162;9.470;2023-02-28T01:54:07;96738.50;;;-0.22;97.46
55271;BME280;41132;47.162;9.470;2023-02-28T01:56:47;96741.34;;;-0.10;96.58
55271;BME280;41132;47.162;9.470;2023-02-28T01:59:22;96745.41;;;-0.06;95.34
55271;BME280;41132;47.162;9.470;2023-02-28T02:01:48;96751.09;;;-0.15;95.45
55271;BME280;41132;47.162;9.470;2023-02-28T02:04:14;96741.09;;;-0.22;96.32
55271;BME280;41132;47.162;9.470;2023-02-28T02:06:43;96744.59;;;-0.23;96.52
55271;BME280;41132;47.162;9.470;2023-02-28T02:09:10;96746.81;;;-0.16;96.91
55271;BME280;41132;47.162;9.470;2023-02-28T02:11:35;96740.00;;;-0.33;97.06
55271;BME280;41132;47.162;9.470;2023-02-28T02:16:52;96732.66;;;-0.41;97.71
55271;BME280;41132;47.162;9.470;2023-02-28T02:25:42;96722.19;;;-0.54;98.65
55271;BME280;41132;47.162;9.470;2023-02-28T02:30:58;96731.09;;;-0.44;99.39
55271;BME280;41132;47.162;9.470;2023-02-28T02:34:00;96726.78;;;-0.43;99.58
55271;BME280;41132;47.162;9.470;2023-02-28T02:36:33;96727.63;;;-0.43;99.17
55271;BME280;41132;47.162;9.470;2023-02-28T02:41:43;96720.28;;;-0.50;99.76
55271;BME280;41132;47.162;9.470;2023-02-28T02:46:47;96715.13;;;-0.50;100.00
55271;BME280;41132;47.162;9.470;2023-02-28T02:49:24;96714.97;;;-0.47;100.00
55271;BME280;41132;47.162;9.470;2023-02-28T02:51:52;96717.88;;;-0.37;100.00
55271;BME280;41132;47.162;9.470;2023-02-28T02:54:28;96721.03;;;-0.48;99.63
55271;BME280;41132;47.162;9.470;2023-02-28T02:56:58;96717.38;;;-0.44;100.00
55271;BME280;41132;47.162;9.470;2023-02-28T02:59:25;96722.22;;;-0.38;100.00
55271;BME280;41132;47.162;9.470;2023-02-28T03:01:55;96724.47;;;-0.32;100.00
55271;BME280;41132;47.162;9.470;2023-02-28T03:04:24;96729.38;;;-0.27;100.00
55271;BME280;41132;47.162;9.470;2023-02-28T03:06:51;96720.53;;;-0.23;100.00
55271;BME280;41132;47.162;9.470;2023-02-28T03:09:24;96723.22;;;-0.25;100.00
55271;BME280;41132;47.162;9.470;2023-02-28T03:11:51;96730.94;;;-0.25;100.00
55271;BME280;41132;47.162;9.470;2023-02-28T03:19:39;96730.06;;;0.07;98.69
55271;BME280;41132;47.162;9.470;2023-02-28T03:28:27;96731.94;;;-0.59;100.00
55271;BME280;41132;47.162;9.470;2023-02-28T03:31:09;96729.19;;;-0.40;100.00
55271;BME280;41132;47.162;9.470;2023-02-28T03:33:40;96730.59;;;-0.18;99.10
55271;BME280;41132;47.162;9.470;2023-02-28T03:36:12;96728.88;;;-0.18;99.70
55271;BME280;41132;47.162;9.470;2023-02-28T03:38:44;96729.50;;;-0.14;98.65
55271;BME280;41132;47.162;9.470;2023-02-28T03:41:19;96726.19;;;-0.48;99.06
55271;BME280;41132;47.162;9.470;2023-02-28T03:43:52;96737.38;;;-0.32;99.27
55271;BME280;41132;47.162;9.470;2023-02-28T03:46:22;96732.34;;;-0.51;99.51
55271;BME280;41132;47.162;9.470;2023-02-28T03:49:00;96736.91;;;-0.56;100.00
55271;BME280;41132;47.162;9.470;2023-02-28T03:51:27;96738.06;;;-0.46;99.62
55271;BME280;41132;47.162;9.470;2023-02-28T03:53:57;96745.22;;;-0.51;100.00
55271;BME280;41132;47.162;9.470;2023-02-28T03:56:48;96754.53;;;-0.64;100.00
55271;BME280;41132;47.162;9.470;2023-02-28T03:59:28;96745.09;;;-0.81;100.00
55271;BME280;41132;47.162;9.470;2023-02-28T04:01:56;96742.47;;;-0.79;100.00
55271;BME280;41132;47.162;9.470;2023-02-28T04:04:23;96748.53;;;-0.65;100.00
55271;BME280;41132;47.162;9.470;2023-02-28T04:06:50;96745.75;;;-0.77;100.00
55271;BME280;41132;47.162;9.470;2023-02-28T04:09:16;96749.72;;;-0.70;100.00
55271;BME280;41132;47.162;9.470;2023-02-28T04:11:44;96748.22;;;-0.58;100.00
55271;BME280;41132;47.162;9.470;2023-02-28T04:14:11;96754.16;;;-0.40;99.43
55271;BME280;41132;47.162;9.470;2023-02-28T04:16:38;96757.25;;;-0.34;99.04
55271;BME280;41132;47.162;9.470;2023-02-28T04:19:05;96756.72;;;-0.56;99.53
55271;BME280;41132;47.162;9.470;2023-02-28T04:21:39;96763.81;;;-0.77;100.00
55271;BME280;41132;47.162;9.470;2023-02-28T04:24:05;96760.19;;;-0.57;100.00
55271;BME280;41132;47.162;9.470;2023-02-28T04:26:35;96753.00;;;-0.84;100.00
55271;BME280;41132;47.162;9.470;2023-02-28T04:29:02;96758.63;;;-0.60;99.94
55271;BME280;41132;47.162;9.470;2023-02-28T04:31:28;96755.16;;;-0.43;99.79
55271;BME280;41132;47.162;9.470;2023-02-28T04:33:54;96750.81;;;-0.58;98.66
55271;BME280;41132;47.162;9.470;2023-02-28T04:36:19;96760.50;;;-0.79;99.60
55271;BME280;41132;47.162;9.470;2023-02-28T05:35:41;96786.72;;;-0.55;99.75
55271;BME280;41132;47.162;9.470;2023-02-28T05:38:08;96787.53;;;-0.71;99.77
55271;BME280;41132;47.162;9.470;2023-02-28T05:40:33;96784.06;;;-0.70;98.77
55271;BME280;41132;47.162;9.470;2023-02-28T05:42:59;96794.25;;;-0.68;99.79
55271;BME280;41132;47.162;9.470;2023-02-28T05:45:25;96790.06;;;-0.53;99.99
55271;BME280;41132;47.162;9.470;2023-02-28T05:47:54;96794.63;;;-0.58;99.95
55271;BME280;41132;47.162;9.470;2023-02-28T05:50:20;96789.31;;;-0.55;99.65
55271;BME280;41132;47.162;9.470;2023-02-28T05:52:50;96785.22;;;-0.59;99.47
55271;BME280;41132;47.162;9.470;2023-02-28T05:55:15;96790.03;;;-0.69;100.00
55271;BME280;41132;47.162;9.470;2023-02-28T05:57:41;96792.44;;;-0.66;100.00
55271;BME280;41132;47.162;9.470;2023-02-28T06:00:08;96795.66;;;-0.45;100.00
55271;BME280;41132;47.162;9.470;2023-02-28T06:02:33;96779.19;;;-0.43;99.12
55271;BME280;41132;47.162;9.470;2023-02-28T06:04:58;96794.50;;;-0.24;96.23
55271;BME280;41132;47.162;9.470;2023-02-28T06:07:24;96804.75;;;-0.38;97.67
55271;BME280;41132;47.162;9.470;2023-02-28T06:09:49;96803.69;;;-0.18;95.89
55271;BME280;41132;47.162;9.470;2023-02-28T06:12:14;96800.94;;;-0.15;96.88
55271;BME280;41132;47.162;9.470;2023-02-28T06:14:40;96787.16;;;-0.47;98.17
55271;BME280;41132;47.162;9.470;2023-02-28T06:17:06;96803.97;;;-0.40;98.63
55271;BME280;41132;47.162;9.470;2023-02-28T06:19:31;96809.47;;;-0.46;98.81
55271;BME280;41132;47.162;9.470;2023-02-28T06:21:56;96821.03;;;-0.71;100.00
55271;BME280;41132;47.162;9.470;2023-02-28T06:24:24;96827.19;;;-0.73;100.00
55271;BME280;41132;47.162;9.470;2023-02-28T06:26:50;96831.16;;;-0.83;100.00
55271;BME280;41132;47.162;9.470;2023-02-28T06:44:45;96841.44;;;-0.33;98.35
55271;BME280;41132;47.162;9.470;2023-02-28T06:47:11;96850.63;;;-0.27;97.73
55271;BME280;41132;47.162;9.470;2023-02-28T06:49:36;96852.50;;;-0.31;99.34
55271;BME280;41132;47.162;9.470;2023-02-28T06:52:02;96847.78;;;-0.56;98.05
55271;BME280;41132;47.162;9.470;2023-02-28T06:54:27;96852.59;;;-0.66;100.00
55271;BME280;41132;47.162;9.470;2023-02-28T06:56:53;96856.19;;;-0.52;99.03
55271;BME280;41132;47.162;9.470;2023-02-28T06:59:19;96865.28;;;-0.45;98.38
55271;BME280;41132;47.162;9.470;2023-02-28T07:01:45;96859.41;;;-0.65;100.00
55271;BME280;41132;47.162;9.470;2023-02-28T07:04:11;96858.34;;;-0.78;100.00
55271;BME280;41132;47.162;9.470;2023-02-28T07:06:38;96867.50;;;-0.55;100.00
55271;BME280;41132;47.162;9.470;2023-02-28T07:09:03;96872.63;;;-0.37;100.00
55271;BME280;41132;47.162;9.470;2023-02-28T07:11:29;96866.09;;;-0.27;99.88
55271;BME280;41132;47.162;9.470;2023-02-28T07:13:55;96867.47;;;-0.37;100.00
55271;BME280;41132;47.162;9.470;2023-02-28T07:16:22;96876.84;;;-0.36;100.00
55271;BME280;41132;47.162;9.470;2023-02-28T07:18:48;96872.31;;;-0.31;99.90
55271;BME280;41132;47.162;9.470;2023-02-28T07:21:14;96878.59;;;-0.37;100.00
55271;BME280;41132;47.162;9.470;2023-02-28T07:23:39;96878.28;;;-0.64;100.00
55271;BME280;41132;47.162;9.470;2023-02-28T07:26:07;96886.94;;;-0.65;100.00
55271;BME280;41132;47.162;9.470;2023-02-28T07:28:36;96873.44;;;-0.88;100.00
55271;BME280;41132;47.162;9.470;2023-02-28T07:31:05;96881.25;;;-0.72;100.00
55271;BME280;41132;47.162;9.470;2023-02-28T07:33:31;96880.16;;;-0.50;100.00
55271;BME280;41132;47.162;9.470;2023-02-28T07:36:03;96876.72;;;-0.33;100.00
55271;BME280;41132;47.162;9.470;2023-02-28T07:38:29;96885.63;;;-0.56;100.00
55271;BME280;41132;47.162;9.470;2023-02-28T07:40:55;96895.78;;;-0.53;100.00
55271;BME280;41132;47.162;9.470;2023-02-28T07:43:20;96894.31;;;-0.42;100.00
55271;BME280;41132;47.162;9.470;2023-02-28T07:45:46;96893.03;;;-0.50;100.00
55271;BME280;41132;47.162;9.470;2023-02-28T07:48:11;96906.63;;;-0.47;100.00
55271;BME280;41132;47.162;9.470;2023-02-28T07:50:36;96901.69;;;-0.51;100.00
55271;BME280;41132;47.162;9.470;2023-02-28T07:53:02;96901.88;;;-0.72;100.00
55271;BME280;41132;47.162;9.470;2023-02-28T07:55:28;96897.31;;;-0.67;100.00
55271;BME280;41132;47.162;9.470;2023-02-28T07:57:53;96892.53;;;-0.74;100.00
55271;BME280;41132;47.162;9.470;2023-02-28T08:00:19;96893.44;;;-0.75;100.00
55271;BME280;41132;47.162;9.470;2023-02-28T08:02:46;96876.22;;;-0.57;100.00
55271;BME280;41132;47.162;9.470;2023-02-28T08:05:11;96892.38;;;-0.54;100.00
55271;BME280;41132;47.162;9.470;2023-02-28T08:07:37;96895.72;;;-0.18;100.00
55271;BME280;41132;47.162;9.470;2023-02-28T08:10:02;96904.16;;;-0.32;100.00
55271;BME280;41132;47.162;9.470;2023-02-28T08:12:30;96902.16;;;-0.43;100.00
55271;BME280;41132;47.162;9.470;2023-02-28T08:14:55;96897.97;;;-0.12;100.00
55271;BME280;41132;47.162;9.470;2023-02-28T08:17:21;96908.94;;;-0.25;100.00
55271;BME280;41132;47.162;9.470;2023-02-28T08:19:46;96899.88;;;-0.32;100.00
55271;BME280;41132;47.162;9.470;2023-02-28T08:22:12;96910.13;;;-0.48;100.00
55271;BME280;41132;47.162;9.470;2023-02-28T08:24:37;96908.81;;;-0.39;100.00
55271;BME280;41132;47.162;9.470;2023-02-28T08:32:13;96909.91;;;0.06;100.00
55271;BME280;41132;47.162;9.470;2023-02-28T08:34:39;96915.09;;;0.22;100.00
55271;BME280;41132;47.162;9.470;2023-02-28T08:37:05;96911.44;;;0.58;100.00
55271;BME280;41132;47.162;9.470;2023-02-28T08:44:40;96920.81;;;0.11;100.00
55271;BME280;41132;47.162;9.470;2023-02-28T08:47:05;96914.44;;;0.18;100.00
55271;BME280;41132;47.162;9.470;2023-02-28T08:49:31;96913.28;;;-0.09;100.00
55271;BME280;41132;47.162;9.470;2023-02-28T08:51:57;96919.91;;;-0.04;100.00
55271;BME280;41132;47.162;9.470;2023-02-28T08:54:23;96923.84;;;0.19;100.00
55271;BME280;41132;47.162;9.470;2023-02-28T08:56:48;96923.66;;;0.23;100.00
55271;BME280;41132;47.162;9.470;2023-02-28T08:59:14;96924.94;;;0.47;99.88
55271;BME280;41132;47.162;9.470;2023-02-28T09:01:40;96921.97;;;0.55;100.00
55271;BME280;41132;47.162;9.470;2023-02-28T09:04:07;96920.59;;;0.63;100.00
55271;BME280;41132;47.162;9.470;2023-02-28T09:06:34;96921.84;;;0.56;100.00
55271;BME280;41132;47.162;9.470;2023-02-28T09:08:59;96919.69;;;0.49;99.35
55271;BME280;41132;47.162;9.470;2023-02-28T09:11:27;96928.34;;;0.48;98.63
55271;BME280;41132;47.162;9.470;2023-02-28T09:13:53;96922.44;;;0.93;98.64
55271;BME280;41132;47.162;9.470;2023-02-28T09:16:19;96933.50;;;0.95;99.82
55271;BME280;41132;47.162;9.470;2023-02-28T09:18:45;96922.00;;;0.85;99.17
55271;BME280;41132;47.162;9.470;2023-02-28T09:21:13;96908.06;;;1.03;100.00
55271;BME280;41132;47.162;9.470;2023-02-28T09:23:40;96905.56;;;1.32;97.98
55271;BME280;41132;47.162;9.470;2023-02-28T09:26:06;96921.25;;;1.59;94.52
55271;BME280;41132;47.162;9.470;2023-02-28T09:28:32;96908.03;;;1.93;92.40
55271;BME280;41132;47.162;9.470;2023-02-28T09:30:58;96919.00;;;1.67;91.95
55271;BME280;41132;47.162;9.470;2023-02-28T09:33:24;96934.00;;;1.77;93.32
55271;BME280;41132;47.162;9.470;2023-02-28T09:35:50;96938.53;;;1.87;94.83
55271;BME280;41132;47.162;9.470;2023-02-28T09:38:17;96923.56;;;1.78;93.16
55271;BME280;41132;47.162;9.470;2023-02-28T09:40:51;96928.66;;;1.80;92.11
55271;BME280;41132;47.162;9.470;2023-02-28T09:43:22;96937.41;;;1.63;91.33
55271;BME280;41132;47.162;9.470;2023-02-28T09:46:02;96936.22;;;1.69;94.44
55271;BME280;41132;47.162;9.470;2023-02-28T09:48:33;96931.19;;;1.65;92.27
55271;BME280;41132;47.162;9.470;2023-02-28T09:51:10;96934.97;;;2.04;93.33
55271;BME280;41132;47.162;9.470;2023-02-28T09:53:39;96924.78;;;2.01;88.23
55271;BME280;41132;47.162;9.470;2023-02-28T09:56:18;96929.03;;;2.02;89.04
55271;BME280;41132;47.162;9.470;2023-02-28T09:58:56;96928.84;;;2.20;90.59
55271;BME280;41132;47.162;9.470;2023-02-28T10:05:09;96932.34;;;2.75;87.96
55271;BME280;41132;47.162;9.470;2023-02-28T10:07:06;96934.34;;;2.84;85.57
55271;BME280;41132;47.162;9.470;2023-02-28T10:09:46;96920.63;;;2.69;87.19
55271;BME280;41132;47.162;9.470;2023-02-28T10:12:13;96925.22;;;2.37;86.57
55271;BME280;41132;47.162;9.470;2023-02-28T10:14:44;96914.53;;;2.56;88.46
55271;BME280;41132;47.162;9.470;2023-02-28T10:19:59;96919.72;;;3.37;89.60
55271;BME280;41132;47.162;9.470;2023-02-28T10:25:30;96918.50;;;3.81;87.11
55271;BME280;41132;47.162;9.470;2023-02-28T10:28:12;96914.31;;;3.40;80.09
55271;BME280;41132;47.162;9.470;2023-02-28T10:30:42;96914.97;;;3.69;82.91
55271;BME280;41132;47.162;9.470;2023-02-28T10:33:17;96922.09;;;3.27;79.80
55271;BME280;41132;47.162;9.470;2023-02-28T10:35:44;96918.91;;;2.55;79.72
55271;BME280;41132;47.162;9.470;2023-02-28T10:38:19;96915.84;;;2.90;82.31
55271;BME280;41132;47.162;9.470;2023-02-28T10:40:45;96918.19;;;3.20;81.95
55271;BME280;41132;47.162;9.470;2023-02-28T10:46:10;96915.25;;;2.99;83.82
55271;BME280;41132;47.162;9.470;2023-02-28T10:48:42;96922.25;;;3.77;83.89
55271;BME280;41132;47.162;9.470;2023-02-28T10:51:11;96911.69;;;4.43;79.65
55271;BME280;41132;47.162;9.470;2023-02-28T10:53:45;96913.88;;;4.36;79.35
55271;BME280;41132;47.162;9.470;2023-02-28T10:56:16;96915.50;;;3.87;77.90
55271;BME280;41132;47.162;9.470;2023-02-28T11:01:22;96916.09;;;3.65;80.46
55271;BME280;41132;47.162;9.470;2023-02-28T11:03:48;96922.25;;;4.03;83.82
55271;BME280;41132;47.162;9.470;2023-02-28T11:06:33;96914.56;;;3.50;79.63
55271;BME280;41132;47.162;9.470;2023-02-28T11:09:03;96916.06;;;3.00;79.91
55271;BME280;41132;47.162;9.470;2023-02-28T11:11:30;96920.31;;;3.28;80.18
55271;BME280;41132;47.162;9.470;2023-02-28T11:14:06;96914.13;;;3.43;83.05
55271;BME280;41132;47.162;9.470;2023-02-28T11:16:37;96906.75;;;3.37;81.61
55271;BME280;41132;47.162;9.470;2023-02-28T11:19:06;96901.25;;;3.67;82.69
55271;BME280;41132;47.162;9.470;2023-02-28T11:21:49;96909.25;;;3.64;80.69
55271;BME280;41132;47.162;9.470;2023-02-28T11:24:33;96905.00;;;3.76;83.70
55271;BME280;41132;47.162;9.470;2023-02-28T11:27:01;96905.41;;;3.70;80.36
55271;BME280;41132;47.162;9.470;2023-02-28T11:29:30;96904.44;;;3.32;81.92
55271;BME280;41132;47.162;9.470;2023-02-28T11:34:35;96898.88;;;3.39;87.97
55271;BME280;41132;47.162;9.470;2023-02-28T11:37:01;96895.47;;;3.64;83.55
55271;BME280;41132;47.162;9.470;2023-02-28T11:39:30;96894.31;;;3.81;84.66
55271;BME280;41132;47.162;9.470;2023-02-28T11:48:13;96881.50;;;3.26;81.95
55271;BME280;41132;47.162;9.470;2023-02-28T12:04:47;96885.50;;;3.05;82.89
55271;BME280;41132;47.162;9.470;2023-02-28T12:16:00;96873.59;;;3.15;83.66
55271;BME280;41132;47.162;9.470;2023-02-28T12:21:44;96871.66;;;2.91;85.45
55271;BME280;41132;47.162;9.470;2023-02-28T12:27:21;96870.69;;;3.20;84.82
55271;BME280;41132;47.162;9.470;2023-02-28T12:32:47;96865.19;;;3.24;85.13
55271;BME280;41132;47.162;9.470;2023-02-28T12:35:28;96857.41;;;3.11;87.07
55271;BME280;41132;47.162;9.470;2023-02-28T12:38:12;96865.53;;;3.32;85.45
55271;BME280;41132;47.162;9.470;2023-02-28T12:43:33;96857.09;;;3.16;81.28
55271;BME280;41132;47.162;9.470;2023-02-28T12:46:06;96855.84;;;3.22;83.73
55271;BME280;41132;47.162;9.470;2023-02-28T12:48:40;96861.09;;;2.95;84.09
55271;BME280;41132;47.162;9.470;2023-02-28T12:51:08;96861.91;;;2.95;82.32
55271;BME280;41132;47.162;9.470;2023-02-28T12:54:04;96857.41;;;3.11;83.35
55271;BME280;41132;47.162;9.470;2023-02-28T13:05:07;96877.16;;;3.00;82.70
55271;BME280;41132;47.162;9.470;2023-02-28T13:10:24;96856.06;;;3.31;83.29
55271;BME280;41132;47.162;9.470;2023-02-28T13:12:52;96860.94;;;3.36;80.97
55271;BME280;41132;47.162;9.470;2023-02-28T13:15:24;96862.16;;;3.18;81.32
55271;BME280;41132;47.162;9.470;2023-02-28T13:17:53;96853.59;;;3.30;80.95
55271;BME280;41132;47.162;9.470;2023-02-28T13:20:23;96851.13;;;3.41;78.81
55271;BME280;41132;47.162;9.470;2023-02-28T13:22:51;96861.19;;;3.59;80.32
55271;BME280;41132;47.162;9.470;2023-02-28T13:28:13;96861.69;;;3.51;81.73
55271;BME280;41132;47.162;9.470;2023-02-28T13:33:35;96852.41;;;2.96;83.39
55271;BME280;41132;47.162;9.470;2023-02-28T13:36:27;96860.94;;;2.83;81.96
55271;BME280;41132;47.162;9.470;2023-02-28T13:38:59;96858.34;;;2.70;81.07
55271;BME280;41132;47.162;9.470;2023-02-28T13:46:33;96869.09;;;2.64;82.95
55271;BME280;41132;47.162;9.470;2023-02-28T13:54:52;96863.44;;;2.58;84.67
55271;BME280;41132;47.162;9.470;2023-02-28T14:03:18;96866.78;;;2.60;83.60
55271;BME280;41132;47.162;9.470;2023-02-28T14:06:09;96863.94;;;2.50;82.53
55271;BME280;41132;47.162;9.470;2023-02-28T14:08:47;96874.34;;;2.63;84.06
55271;BME280;41132;47.162;9.470;2023-02-28T14:11:31;96876.91;;;2.77;84.41
55271;BME280;41132;47.162;9.470;2023-02-28T14:13:57;96881.09;;;2.92;83.58
55271;BME280;41132;47.162;9.470;2023-02-28T14:16:25;96875.44;;;2.73;82.77
55271;BME280;41132;47.162;9.470;2023-02-28T14:18:56;96874.13;;;2.80;84.55
55271;BME280;41132;47.162;9.470;2023-02-28T14:21:29;96871.81;;;2.76;85.54
55271;BME280;41132;47.162;9.470;2023-02-28T14:27:11;96876.06;;;2.77;84.94
55271;BME280;41132;47.162;9.470;2023-02-28T14:37:33;96870.13;;;2.75;82.42
55271;BME280;41132;47.162;9.470;2023-02-28T14:40:03;96871.03;;;2.88;84.16
55271;BME280;41132;47.162;9.470;2023-02-28T14:42:35;96871.66;;;2.91;84.16
55271;BME280;41132;47.162;9.470;2023-02-28T14:45:01;96873.75;;;2.99;84.91
55271;BME280;41132;47.162;9.470;2023-02-28T14:47:30;96870.34;;;2.71;83.58
55271;BME280;41132;47.162;9.470;2023-02-28T14:49:58;96874.69;;;2.44;83.20
55271;BME280;41132;47.162;9.470;2023-02-28T14:52:26;96874.69;;;2.44;83.35
55271;BME280;41132;47.162;9.470;2023-02-28T14:54:56;96882.75;;;2.39;83.19
55271;BME280;41132;47.162;9.470;2023-02-28T15:12:56;96901.78;;;2.53;84.17
55271;BME280;41132;47.162;9.470;2023-02-28T15:18:31;96896.81;;;2.35;83.74
55271;BME280;41132;47.162;9.470;2023-02-28T15:21:07;96901.41;;;2.44;87.26
55271;BME280;41132;47.162;9.470;2023-02-28T15:23:36;96899.81;;;2.56;83.77
55271;BME280;41132;47.162;9.470;2023-02-28T15:26:03;96912.81;;;2.42;84.66
55271;BME280;41132;47.162;9.470;2023-02-28T15:28:29;96907.84;;;2.24;83.92
55271;BME280;41132;47.162;9.470;2023-02-28T15:30:59;96906.25;;;2.22;84.68
55271;BME280;41132;47.162;9.470;2023-02-28T15:33:27;96910.25;;;2.27;86.90
55271;BME280;41132;47.162;9.470;2023-02-28T15:36:05;96913.69;;;2.14;85.36
55271;BME280;41132;47.162;9.470;2023-02-28T15:38:34;96904.69;;;2.19;85.83
55271;BME280;41132;47.162;9.470;2023-02-28T15:41:00;96912.47;;;2.19;86.74
55271;BME280;41132;47.162;9.470;2023-02-28T15:48:31;96918.28;;;2.08;87.27
55271;BME280;41132;47.162;9.470;2023-02-28T15:51:02;96923.75;;;2.04;86.98
55271;BME280;41132;47.162;9.470;2023-02-28T15:53:35;96931.78;;;1.99;88.43
55271;BME280;41132;47.162;9.470;2023-02-28T15:56:04;96922.25;;;2.00;87.06
55271;BME280;41132;47.162;9.470;2023-02-28T15:58:30;96934.50;;;2.12;88.42
55271;BME280;41132;47.162;9.470;2023-02-28T16:01:23;96937.06;;;2.26;87.07
55271;BME280;41132;47.162;9.470;2023-02-28T16:03:51;96941.63;;;2.23;87.51
55271;BME280;41132;47.162;9.470;2023-02-28T16:06:34;96936.88;;;2.15;88.33
55271;BME280;41132;47.162;9.470;2023-02-28T16:09:00;96932.25;;;1.92;88.40
55271;BME280;41132;47.162;9.470;2023-02-28T16:11:26;96939.16;;;1.77;87.82
55271;BME280;41132;47.162;9.470;2023-02-28T16:13:52;96947.59;;;1.95;88.56
55271;BME280;41132;47.162;9.470;2023-02-28T16:16:23;96951.88;;;1.96;87.01
55271;BME280;41132;47.162;9.470;2023-02-28T16:18:49;96947.78;;;1.92;88.05
55271;BME280;41132;47.162;9.470;2023-02-28T16:21:15;96954.91;;;1.88;88.37
55271;BME280;41132;47.162;9.470;2023-02-28T16:23:41;96946.84;;;1.93;90.07
55271;BME280;41132;47.162;9.470;2023-02-28T16:26:07;96948.88;;;1.73;89.06
55271;BME280;41132;47.162;9.470;2023-02-28T16:28:36;96945.56;;;1.71;89.40
55271;BME280;41132;47.162;9.470;2023-02-28T16:31:05;96940.75;;;1.79;89.23
55271;BME280;41132;47.162;9.470;2023-02-28T16:33:32;96944.72;;;1.71;90.83
55271;BME280;41132;47.162;9.470;2023-02-28T16:36:02;96938.88;;;1.67;88.36
55271;BME280;41132;47.162;9.470;2023-02-28T16:38:28;96957.56;;;1.72;88.12
55271;BME280;41132;47.162;9.470;2023-02-28T16:40:56;96958.84;;;1.65;87.87
55271;BME280;41132;47.162;9.470;2023-02-28T16:43:25;96959.59;;;1.67;89.48
55271;BME280;41132;47.162;9.470;2023-02-28T16:45:56;96954.56;;;1.50;89.00
55271;BME280;41132;47.162;9.470;2023-02-28T16:48:23;96968.97;;;1.54;90.59
55271;BME280;41132;47.162;9.470;2023-02-28T16:50:48;96961.97;;;1.56;88.25
55271;BME280;41132;47.162;9.470;2023-02-28T16:53:14;96959.50;;;1.69;88.43
55271;BME280;41132;47.162;9.470;2023-02-28T16:55:39;96964.91;;;1.50;90.39
55271;BME280;41132;47.162;9.470;2023-02-28T16:58:05;96974.22;;;1.52;89.93
55271;BME280;41132;47.162;9.470;2023-02-28T17:00:32;96975.47;;;1.61;89.63
55271;BME280;41132;47.162;9.470;2023-02-28T17:02:58;96967.91;;;1.72;89.54
55271;BME280;41132;47.162;9.470;2023-02-28T17:05:32;96981.81;;;1.85;89.63
55271;BME280;41132;47.162;9.470;2023-02-28T17:07:58;96989.41;;;1.58;90.43
55271;BME280;41132;47.162;9.470;2023-02-28T17:10:25;96981.66;;;1.58;93.17
55271;BME280;41132;47.162;9.470;2023-02-28T17:12:51;96989.91;;;1.65;91.33
55271;BME280;41132;47.162;9.470;2023-02-28T17:17:49;96995.53;;;1.57;90.68
55271;BME280;41132;47.162;9.470;2023-02-28T17:20:17;96998.81;;;1.75;89.63
55271;BME280;41132;47.162;9.470;2023-02-28T17:22:43;97003.38;;;1.70;89.19
55271;BME280;41132;47.162;9.470;2023-02-28T17:25:10;97001.34;;;1.61;90.64
55271;BME280;41132;47.162;9.470;2023-02-28T17:27:35;97000.78;;;1.56;90.75
55271;BME280;41132;47.162;9.470;2023-02-28T17:30:02;96988.41;;;1.61;90.79
55271;BME280;41132;47.162;9.470;2023-02-28T17:32:28;96993.34;;;1.50;91.38
55271;BME280;41132;47.162;9.470;2023-02-28T17:34:53;97005.88;;;1.57;90.67
55271;BME280;41132;47.162;9.470;2023-02-28T17:37:18;96995.63;;;1.70;91.08
55271;BME280;41132;47.162;9.470;2023-02-28T17:39:44;97002.56;;;1.70;91.00
55271;BME280;41132;47.162;9.470;2023-02-28T17:42:09;97002.13;;;1.47;91.96
55271;BME280;41132;47.162;9.470;2023-02-28T17:44:35;97004.81;;;1.76;89.97
55271;BME280;41132;47.162;9.470;2023-02-28T17:47:00;97004.94;;;1.88;89.04
55271;BME280;41132;47.162;9.470;2023-02-28T17:49:26;97011.25;;;1.69;89.09
55271;BME280;41132;47.162;9.470;2023-02-28T17:51:52;97014.88;;;1.66;89.38
55271;BME280;41132;47.162;9.470;2023-02-28T17:54:17;97016.53;;;1.81;88.76
55271;BME280;41132;47.162;9.470;2023-02-28T17:56:43;97002.78;;;1.51;89.47